Time;durP1;ratioP1;P1;durP2;ratioP2;P2;SDS_P1;SDS_P2;PMS_P1;PMS_P2;Temp;Humidity;BMP_temperature;BMP_pressure;BME280_temperature;BME280_humidity;BME280_pressure;Samples;Min_cycle;Max_cycle;Signal;HPM_P1;HPM_P2
2023/10/11 00:00:33;;;;;;;23.65;10.15;;;16.20;99.90;;;;;;5010537;28;251627;-72
2023/10/11 00:03:15;;;;;;;24.85;10.25;;;16.10;99.90;;;;;;5032627;28;20060;-72
2023/10/11 00:05:43;;;;;;;23.20;9.90;;;16.20;99.90;;;;;;5049923;28;20057;-72
2023/10/11 00:08:13;;;;;;;26.45;10.35;;;16.10;99.90;;;;;;5021485;28;133870;-72
2023/10/11 00:10:47;;;;;;;22.58;10.02;;;16.20;99.90;;;;;;5058659;28;20060;-70
2023/10/11 00:13:17;;;;;;;28.65;10.82;;;16.10;99.90;;;;;;5025796;28;86023;-71
2023/10/11 00:15:50;;;;;;;22.55;11.45;;;16.10;99.90;;;;;;5052265;28;20048;-73
2023/10/11 00:18:18;;;;;;;26.38;11.23;;;16.20;99.90;;;;;;5016811;28;236987;-73
2023/10/11 00:23:11;;;;;;;24.75;11.13;;;16.10;99.90;;;;;;5023600;28;27404;-71
2023/10/11 00:25:39;;;;;;;27.27;11.10;;;16.10;99.90;;;;;;5062214;28;20049;-73
2023/10/11 00:28:08;;;;;;;23.08;11.38;;;16.10;99.90;;;;;;5034363;28;20176;-73
2023/10/11 00:30:38;;;;;;;27.20;12.02;;;16.10;99.90;;;;;;5026429;28;20044;-73
2023/10/11 00:33:07;;;;;;;26.73;11.85;;;16.10;99.90;;;;;;5034268;28;20079;-72
2023/10/11 00:35:41;;;;;;;33.50;12.55;;;16.10;99.90;;;;;;5007197;28;20059;-73
2023/10/11 00:38:11;;;;;;;27.33;12.90;;;16.10;99.90;;;;;;5030350;28;68571;-72
2023/10/11 00:40:37;;;;;;;33.30;13.50;;;16.10;99.90;;;;;;5059574;28;20044;-72
2023/10/11 00:43:06;;;;;;;32.65;13.60;;;16.10;99.90;;;;;;5020337;28;20052;-72
2023/10/11 00:45:36;;;;;;;30.45;12.48;;;16.10;99.90;;;;;;5032520;28;20965;-71
2023/10/11 00:48:07;;;;;;;29.60;13.52;;;16.10;99.90;;;;;;5036130;28;20057;-72
2023/10/11 00:50:35;;;;;;;27.88;13.27;;;16.10;99.90;;;;;;5023340;28;20144;-71
2023/10/11 00:53:01;;;;;;;29.80;13.70;;;16.10;99.90;;;;;;5034229;28;20053;-71
2023/10/11 00:55:29;;;;;;;28.75;13.38;;;16.10;99.90;;;;;;5039712;28;151687;-72
2023/10/11 00:57:59;;;;;;;28.65;12.93;;;16.10;99.90;;;;;;5034594;28;20060;-72
2023/10/11 01:00:25;;;;;;;38.20;15.30;;;16.10;99.90;;;;;;5048194;28;200109;-72
2023/10/11 01:02:52;;;;;;;33.08;15.07;;;16.10;99.90;;;;;;5036808;28;20048;-71
2023/10/11 01:05:19;;;;;;;35.00;14.32;;;16.10;99.90;;;;;;5029151;28;255975;-71
2023/10/11 01:07:46;;;;;;;33.55;14.30;;;16.10;99.90;;;;;;5052464;28;20063;-69
2023/10/11 01:10:13;;;;;;;28.65;14.30;;;16.10;99.90;;;;;;5021175;28;104040;-71
2023/10/11 01:12:39;;;;;;;31.25;14.30;;;16.10;99.90;;;;;;5054144;28;20063;-70
2023/10/11 01:15:11;;;;;;;31.95;14.82;;;16.10;99.90;;;;;;4998896;28;116726;-71
2023/10/11 01:17:40;;;;;;;32.63;13.85;;;16.00;99.90;;;;;;5058884;28;20072;-72
2023/10/11 01:20:13;;;;;;;32.72;14.75;;;16.10;99.90;;;;;;5001974;28;169460;-72
2023/10/11 01:22:43;;;;;;;31.08;15.13;;;16.00;99.90;;;;;;5062408;28;20064;-71
2023/10/11 01:25:18;;;;;;;38.88;14.57;;;16.00;99.90;;;;;;4989024;28;205025;-72
2023/10/11 01:27:45;;;;;;;29.65;14.57;;;16.00;99.90;;;;;;5053504;28;20057;-72
2023/10/11 01:30:11;;;;;;;36.63;15.38;;;16.10;99.90;;;;;;4990565;28;129402;-72
2023/10/11 01:32:41;;;;;;;33.33;14.77;;;16.10;99.90;;;;;;5061789;28;20422;-72
2023/10/11 01:35:12;;;;;;;35.67;14.70;;;16.10;99.90;;;;;;4997221;28;183593;-71
2023/10/11 01:37:43;;;;;;;32.03;15.40;;;16.00;99.90;;;;;;5061654;28;20052;-72
2023/10/11 01:40:11;;;;;;;41.05;15.27;;;16.00;99.90;;;;;;5008635;28;59128;-71
2023/10/11 01:42:37;;;;;;;35.20;15.10;;;16.00;99.90;;;;;;5061720;28;20055;-72
2023/10/11 01:45:07;;;;;;;33.20;15.88;;;16.00;99.90;;;;;;5024163;28;82392;-71
2023/10/11 01:47:34;;;;;;;34.90;15.55;;;16.10;99.90;;;;;;5062544;28;20067;-71
2023/10/11 01:50:00;;;;;;;34.47;15.68;;;16.00;99.90;;;;;;5017698;28;85552;-71
2023/10/11 01:52:26;;;;;;;35.30;15.27;;;16.00;99.90;;;;;;5059920;28;20044;-72
2023/10/11 01:54:56;;;;;;;35.60;16.40;;;16.00;99.90;;;;;;5002711;28;174455;-73
2023/10/11 01:57:25;;;;;;;37.17;14.98;;;16.00;99.90;;;;;;5043446;28;20052;-72
2023/10/11 01:59:52;;;;;;;40.78;15.65;;;16.00;99.90;;;;;;5013366;28;153322;-71
2023/10/11 02:02:19;;;;;;;32.50;15.68;;;16.00;99.90;;;;;;5059570;28;20048;-73
2023/10/11 02:04:50;;;;;;;34.80;16.45;;;16.00;99.90;;;;;;5016118;28;122188;-72
2023/10/11 02:07:16;;;;;;;40.65;17.17;;;16.00;99.90;;;;;;5059426;28;20053;-71
2023/10/11 02:09:43;;;;;;;38.78;16.58;;;16.00;99.90;;;;;;5000006;28;173471;-71
2023/10/11 02:12:10;;;;;;;39.30;16.58;;;16.00;99.90;;;;;;5059368;28;20048;-73
2023/10/11 02:14:40;;;;;;;39.28;16.73;;;16.00;99.90;;;;;;5010142;28;250221;-73
2023/10/11 02:17:06;;;;;;;37.90;16.80;;;16.00;99.90;;;;;;5058562;28;20071;-73
2023/10/11 02:19:32;;;;;;;36.78;16.70;;;16.00;99.90;;;;;;5002122;28;105242;-73
2023/10/11 02:22:00;;;;;;;38.78;17.13;;;15.90;99.90;;;;;;5060439;28;20053;-72
2023/10/11 02:24:26;;;;;;;35.30;16.73;;;15.90;99.90;;;;;;5012435;28;46257;-71
2023/10/11 02:26:54;;;;;;;44.05;18.00;;;15.90;99.90;;;;;;5059341;28;20708;-71
2023/10/11 02:29:21;;;;;;;40.90;16.63;;;15.90;99.90;;;;;;5012894;28;171196;-71
2023/10/11 02:31:52;;;;;;;38.10;17.90;;;15.90;99.90;;;;;;5049464;28;20376;-71
2023/10/11 02:34:19;;;;;;;42.80;17.70;;;15.90;99.90;;;;;;4995275;28;105351;-71
2023/10/11 02:36:56;;;;;;;39.08;17.90;;;15.90;99.90;;;;;;5058236;28;20057;-71
2023/10/11 02:39:31;;;;;;;39.80;17.65;;;15.90;99.90;;;;;;5011333;28;143968;-71
2023/10/11 02:41:58;;;;;;;41.17;17.15;;;15.90;99.90;;;;;;5039211;28;20066;-72
2023/10/11 02:44:25;;;;;;;39.90;17.05;;;15.90;99.90;;;;;;5019363;28;223167;-72
2023/10/11 02:46:51;;;;;;;39.20;17.30;;;15.90;99.90;;;;;;5059044;28;20060;-72
2023/10/11 02:49:21;;;;;;;36.03;17.17;;;15.90;99.90;;;;;;4996967;28;103773;-72
2023/10/11 02:51:52;;;;;;;44.15;17.55;;;15.90;99.90;;;;;;5058885;28;20048;-72
2023/10/11 02:54:38;;;;;;;34.13;16.90;;;15.90;99.90;;;;;;4986360;28;145190;-72
2023/10/11 02:57:20;;;;;;;39.70;16.58;;;15.90;99.90;;;;;;5061003;28;20056;-72
2023/10/11 02:59:50;;;;;;;38.20;15.98;;;15.90;99.90;;;;;;5021308;28;105544;-72
2023/10/11 03:02:16;;;;;;;38.05;16.27;;;15.90;99.90;;;;;;5066871;28;20403;-72
2023/10/11 03:04:42;;;;;;;37.17;15.73;;;15.90;99.90;;;;;;5027401;28;73341;-70
2023/10/11 03:07:14;;;;;;;39.67;16.58;;;15.80;99.90;;;;;;5065367;28;20064;-71
2023/10/11 03:09:40;;;;;;;33.67;15.93;;;15.80;99.90;;;;;;5008780;28;47979;-72
2023/10/11 03:12:18;;;;;;;35.88;15.48;;;15.80;99.90;;;;;;5061546;28;20056;-71
2023/10/11 03:14:54;;;;;;;30.80;13.70;;;15.80;99.90;;;;;;5020876;28;221279;-72
2023/10/11 03:17:23;;;;;;;34.72;15.13;;;15.80;99.90;;;;;;5064581;28;20063;-71
2023/10/11 03:19:52;;;;;;;36.90;15.05;;;15.80;99.90;;;;;;5003160;28;155222;-70
2023/10/11 03:22:20;;;;;;;35.47;14.50;;;15.80;99.90;;;;;;5059989;28;20048;-71
2023/10/11 03:24:59;;;;;;;34.25;15.68;;;15.80;99.90;;;;;;5021618;28;126447;-71
2023/10/11 03:27:27;;;;;;;35.92;14.02;;;15.80;99.90;;;;;;5060223;28;20459;-72
2023/10/11 03:29:53;;;;;;;36.78;14.30;;;15.80;99.90;;;;;;4976315;28;160109;-71
2023/10/11 03:32:24;;;;;;;36.42;14.45;;;15.80;99.90;;;;;;5048139;28;20041;-73
2023/10/11 03:34:51;;;;;;;37.63;14.13;;;15.80;99.90;;;;;;4985309;28;230340;-72
2023/10/11 03:37:20;;;;;;;32.45;14.15;;;15.90;99.90;;;;;;5059908;28;20052;-71
2023/10/11 03:39:55;;;;;;;37.20;13.80;;;15.80;99.90;;;;;;5018170;28;187653;-72
2023/10/11 03:42:39;;;;;;;31.10;13.77;;;15.90;99.90;;;;;;5062579;28;20060;-70
2023/10/11 03:45:08;;;;;;;37.78;14.32;;;15.90;99.90;;;;;;5017301;28;78341;-71
2023/10/11 03:47:35;;;;;;;37.38;14.65;;;15.90;99.90;;;;;;5046039;28;20061;-71
2023/10/11 03:50:03;;;;;;;34.45;13.52;;;15.90;99.90;;;;;;5024442;28;46174;-71
2023/10/11 03:52:32;;;;;;;35.70;13.63;;;15.90;99.90;;;;;;5051938;28;20303;-70
2023/10/11 03:57:36;;;;;;;39.42;13.77;;;15.90;99.90;;;;;;5059921;28;21382;-70
2023/10/11 04:02:47;;;;;;;33.47;14.48;;;15.90;99.90;;;;;;5035732;28;20041;-70
2023/10/11 04:05:14;;;;;;;35.65;14.02;;;15.90;99.90;;;;;;5028995;28;222122;-72
2023/10/11 04:07:40;;;;;;;32.38;13.23;;;15.90;99.90;;;;;;5063493;28;20051;-71
2023/10/11 04:10:19;;;;;;;41.22;14.63;;;16.00;99.90;;;;;;5012102;28;193220;-72
2023/10/11 04:12:46;;;;;;;33.45;14.45;;;15.90;99.90;;;;;;5049004;28;20052;-70
2023/10/11 04:15:24;;;;;;;35.67;13.70;;;16.00;99.90;;;;;;5034147;28;229541;-71
2023/10/11 04:17:55;;;;;;;29.35;11.57;;;15.90;99.90;;;;;;5032979;28;20064;-70
2023/10/11 04:20:29;;;;;;;30.65;13.43;;;15.90;99.90;;;;;;5031955;28;189655;-71
2023/10/11 04:23:14;;;;;;;30.48;13.05;;;15.90;99.90;;;;;;5041887;28;20036;-70
2023/10/11 04:25:43;;;;;;;34.60;13.57;;;15.90;99.90;;;;;;5027125;28;20043;-71
2023/10/11 04:28:12;;;;;;;33.22;12.93;;;15.90;99.90;;;;;;5019260;28;58340;-70
2023/10/11 04:30:44;;;;;;;34.28;13.88;;;15.90;99.90;;;;;;5058507;28;20538;-71
2023/10/11 04:33:20;;;;;;;29.45;12.20;;;15.90;99.90;;;;;;5021240;28;20424;-70
2023/10/11 04:35:55;;;;;;;35.83;13.68;;;15.90;99.90;;;;;;5048794;28;20438;-70
2023/10/11 04:38:22;;;;;;;31.10;13.57;;;15.90;99.90;;;;;;5024429;28;125963;-71
2023/10/11 04:40:56;;;;;;;41.35;13.93;;;15.90;99.90;;;;;;5057576;28;20053;-73
2023/10/11 04:43:25;;;;;;;33.95;14.35;;;15.90;99.90;;;;;;5008039;28;20104;-72
2023/10/11 04:45:55;;;;;;;38.88;14.75;;;15.80;99.90;;;;;;5056298;28;20061;-72
2023/10/11 04:48:40;;;;;;;31.85;13.68;;;15.80;99.90;;;;;;5019806;28;20415;-72
2023/10/11 04:59:59;;;;;;;36.60;13.43;;;15.70;99.90;;;;;;5020934;28;20049;-73
2023/10/11 05:02:09;;;;;;;34.60;13.55;;;15.70;99.90;;;;;;5051562;28;20045;-72
2023/10/11 05:04:41;;;;;;;37.55;13.55;;;15.70;99.90;;;;;;5009856;28;20049;-70
2023/10/11 05:07:08;;;;;;;29.15;13.10;;;15.70;99.90;;;;;;5057748;28;20053;-72
2023/10/11 05:09:39;;;;;;;33.63;13.88;;;15.70;99.90;;;;;;5018174;28;20041;-72
2023/10/11 05:12:12;;;;;;;32.67;12.73;;;15.70;99.90;;;;;;5060249;28;20438;-73
2023/10/11 05:14:53;;;;;;;43.35;14.32;;;15.80;99.90;;;;;;5016527;28;20056;-72
2023/10/11 05:27:47;;;;;;;39.13;12.95;;;15.90;99.90;;;;;;5061464;28;20048;-71
2023/10/11 05:30:26;;;;;;;33.22;13.45;;;16.00;99.90;;;;;;5011251;28;20530;-71
2023/10/11 05:52:16;;;;;;;46.85;15.30;;;15.90;99.90;;;;;;5055708;28;20048;-72
2023/10/11 05:54:45;;;;;;;34.70;14.73;;;15.90;99.90;;;;;;4980263;28;74037;-69
2023/10/11 05:57:13;;;;;;;41.38;15.48;;;15.80;99.90;;;;;;5053033;28;20072;-71
2023/10/11 05:59:42;;;;;;;40.35;15.65;;;15.80;99.90;;;;;;5007828;28;20041;-71
2023/10/11 06:02:13;;;;;;;39.10;15.88;;;15.80;99.90;;;;;;5058826;28;20068;-72
2023/10/11 06:04:40;;;;;;;38.58;15.93;;;15.90;99.90;;;;;;5003451;28;20045;-72
2023/10/11 06:07:07;;;;;;;38.30;15.00;;;15.90;99.90;;;;;;5056217;28;20064;-73
2023/10/11 06:09:39;;;;;;;33.55;14.75;;;15.90;99.90;;;;;;4986027;28;20040;-71
2023/10/11 06:12:22;;;;;;;39.70;15.55;;;15.90;99.90;;;;;;5059459;28;20053;-72
2023/10/11 06:14:55;;;;;;;39.65;15.02;;;15.90;99.90;;;;;;5000172;28;20055;-73
2023/10/11 06:20:27;;;;;;;38.67;15.93;;;15.90;99.90;;;;;;4973742;28;20041;-74
2023/10/11 06:22:54;;;;;;;39.63;14.60;;;16.00;99.90;;;;;;5017783;28;20442;-72
2023/10/11 06:25:49;;;;;;;47.10;16.08;;;16.00;99.90;;;;;;5060125;28;20048;-73
2023/10/11 06:28:13;;;;;;;43.92;16.98;;;16.00;99.90;;;;;;5017054;28;20085;-74
2023/10/11 06:30:43;;;;;;;40.83;16.10;;;16.00;99.90;;;;;;5045794;28;20190;-74
2023/10/11 06:33:12;;;;;;;38.35;15.50;;;16.10;99.90;;;;;;5016314;28;20050;-73
2023/10/11 06:35:47;;;;;;;35.10;15.90;;;16.10;99.90;;;;;;5011496;28;20049;-72
2023/10/11 06:38:13;;;;;;;38.22;14.82;;;16.20;99.90;;;;;;5022779;28;20044;-70
2023/10/11 06:40:39;;;;;;;40.53;15.55;;;16.20;99.90;;;;;;5018505;28;20059;-71
2023/10/11 06:43:08;;;;;;;43.72;16.80;;;16.20;99.90;;;;;;5010166;28;20052;-73
2023/10/11 06:45:35;;;;;;;35.47;15.85;;;16.30;99.90;;;;;;5060917;28;20056;-72
2023/10/11 06:48:08;;;;;;;42.22;17.05;;;16.30;99.90;;;;;;5021680;28;20063;-73
2023/10/11 06:50:36;;;;;;;40.97;16.73;;;16.30;99.90;;;;;;5038159;28;20131;-71
2023/10/11 06:53:09;;;;;;;41.30;17.70;;;16.20;99.90;;;;;;5004938;28;104131;-73
2023/10/11 06:55:39;;;;;;;43.83;17.02;;;16.30;99.90;;;;;;5035823;28;20517;-73
2023/10/11 06:58:15;;;;;;;44.20;16.35;;;16.30;99.90;;;;;;5022722;28;20936;-71
2023/10/11 07:00:48;;;;;;;40.03;15.82;;;16.30;99.90;;;;;;5047001;28;20044;-72
2023/10/11 07:05:46;;;;;;;43.67;15.73;;;16.30;99.90;;;;;;5053612;28;20139;-73
2023/10/11 07:08:19;;;;;;;37.60;15.05;;;16.30;99.90;;;;;;5018084;28;20057;-73
2023/10/11 07:16:19;;;;;;;41.47;15.65;;;16.40;99.90;;;;;;5056653;28;20049;-73
2023/10/11 07:18:46;;;;;;;44.92;16.23;;;16.40;99.90;;;;;;5018392;28;20052;-71
2023/10/11 07:21:16;;;;;;;38.55;15.05;;;16.50;99.90;;;;;;5041719;28;20132;-72
2023/10/11 07:26:23;;;;;;;47.25;16.60;;;16.50;99.90;;;;;;5044921;28;20059;-73
2023/10/11 07:28:53;;;;;;;41.60;16.00;;;16.50;99.90;;;;;;5010528;28;20527;-74
2023/10/11 07:31:20;;;;;;;39.07;15.57;;;16.50;99.90;;;;;;5055425;28;20059;-72
2023/10/11 07:33:50;;;;;;;41.50;15.98;;;16.50;99.90;;;;;;5016226;28;20065;-72
2023/10/11 07:36:19;;;;;;;40.25;17.60;;;16.50;99.90;;;;;;5045681;28;20068;-73
2023/10/11 07:38:54;;;;;;;40.45;17.27;;;16.60;99.90;;;;;;5005958;28;20045;-73
2023/10/11 07:41:22;;;;;;;42.22;18.00;;;16.60;99.90;;;;;;5050101;28;20056;-73
2023/10/11 07:43:48;;;;;;;41.88;17.63;;;16.60;99.90;;;;;;5011533;28;69093;-73
2023/10/11 07:46:14;;;;;;;39.65;17.45;;;16.60;99.90;;;;;;5062214;28;20053;-73
2023/10/11 07:48:41;;;;;;;43.03;17.08;;;16.60;99.90;;;;;;4999529;28;20048;-73
2023/10/11 07:51:10;;;;;;;39.10;17.80;;;16.60;99.90;;;;;;5056528;28;20056;-74
2023/10/11 07:53:41;;;;;;;44.45;18.08;;;16.60;99.90;;;;;;5006927;28;132663;-73
2023/10/11 07:56:08;;;;;;;;;;;16.60;99.90;;;;;;5052734;28;20052;-74
2023/10/11 07:58:36;;;;;;;41.53;17.65;;;16.70;99.90;;;;;;5009841;28;19932;-72
2023/10/11 08:01:05;;;;;;;45.38;18.85;;;16.60;99.90;;;;;;5041397;28;20049;-73
2023/10/11 08:03:37;;;;;;;51.88;18.85;;;16.70;99.90;;;;;;5016660;28;20052;-71
2023/10/11 08:06:08;;;;;;;46.60;19.25;;;16.70;99.90;;;;;;5050121;28;20064;-73
2023/10/11 08:08:37;;;;;;;44.28;19.63;;;16.70;99.90;;;;;;5022779;28;20110;-75
2023/10/11 08:11:06;;;;;;;40.70;19.30;;;16.70;99.90;;;;;;5034666;28;20103;-73
2023/10/11 08:13:37;;;;;;;46.75;19.15;;;16.70;99.90;;;;;;5018925;28;20107;-74
2023/10/11 08:16:06;;;;;;;47.45;20.27;;;16.70;99.90;;;;;;5037546;28;20063;-73
2023/10/11 08:18:36;;;;;;;47.92;19.00;;;16.70;99.90;;;;;;5012822;28;171395;-73
2023/10/11 08:21:02;;;;;;;38.92;18.52;;;16.70;99.90;;;;;;5067558;28;20048;-73
2023/10/11 08:23:29;;;;;;;48.85;20.42;;;16.70;99.90;;;;;;5021643;28;20112;-73
2023/10/11 08:25:56;;;;;;;45.75;19.67;;;16.70;99.90;;;;;;5053421;28;20064;-71
2023/10/11 08:28:34;;;;;;;46.05;18.42;;;16.70;99.90;;;;;;5025031;28;25031;-73
2023/10/11 08:31:01;;;;;;;48.25;18.20;;;16.80;99.90;;;;;;5063806;28;20056;-72
2023/10/11 08:33:31;;;;;;;48.25;19.35;;;16.80;99.90;;;;;;5010221;28;20060;-73
2023/10/11 08:35:57;;;;;;;43.63;18.98;;;16.80;99.90;;;;;;5029474;28;20056;-73
2023/10/11 08:38:27;;;;;;;57.58;19.83;;;16.80;99.90;;;;;;5022933;28;20138;-72
2023/10/11 08:40:58;;;;;;;45.03;18.23;;;16.80;99.90;;;;;;5046945;28;20049;-72
2023/10/11 08:43:31;;;;;;;44.33;16.35;;;16.90;99.90;;;;;;5017123;28;20055;-72
2023/10/11 08:46:01;;;;;;;36.55;15.70;;;16.90;99.90;;;;;;5046361;28;20060;-72
2023/10/11 08:48:28;;;;;;;41.15;16.48;;;16.90;99.90;;;;;;5013114;28;20044;-73
2023/10/11 08:50:55;;;;;;;28.25;13.02;;;17.00;99.90;;;;;;5043616;28;20428;-73
2023/10/11 08:53:23;;;;;;;32.13;12.20;;;17.10;99.90;;;;;;5001787;28;191871;-72
2023/10/11 08:55:54;;;;;;;30.73;12.45;;;17.20;99.90;;;;;;5047266;28;20036;-73
2023/10/11 08:58:27;;;;;;;31.80;11.93;;;17.30;99.90;;;;;;5018883;28;20040;-72
2023/10/11 09:00:55;;;;;;;28.80;11.68;;;17.40;99.90;;;;;;5051454;28;20056;-72
2023/10/11 09:03:40;;;;;;;26.92;10.65;;;17.40;99.90;;;;;;5017444;28;20060;-72
2023/10/11 09:06:26;;;;;;;29.25;10.98;;;17.40;99.90;;;;;;5055506;28;20051;-73
2023/10/11 09:08:57;;;;;;;22.52;10.40;;;17.50;99.90;;;;;;5019472;28;20067;-73
2023/10/11 09:11:28;;;;;;;29.10;11.17;;;17.50;99.90;;;;;;5049818;28;20048;-73
2023/10/11 09:14:11;;;;;;;27.42;9.43;;;17.50;99.90;;;;;;5017653;28;20306;-72
2023/10/11 09:16:37;;;;;;;24.30;9.55;;;17.60;99.90;;;;;;5055627;28;20688;-74
2023/10/11 09:19:10;;;;;;;25.52;9.40;;;17.60;99.90;;;;;;5008168;28;20052;-72
2023/10/11 09:21:37;;;;;;;18.40;7.93;;;17.60;99.90;;;;;;5057220;28;20060;-73
2023/10/11 09:24:23;;;;;;;25.20;8.35;;;17.70;99.90;;;;;;5008941;28;20036;-73
2023/10/11 09:27:12;;;;;;;23.45;8.13;;;17.70;99.90;;;;;;5037196;28;20722;-72
2023/10/11 09:29:39;;;;;;;21.48;7.68;;;17.70;99.90;;;;;;4999653;28;20068;-73
2023/10/11 09:32:05;;;;;;;23.58;8.23;;;17.70;99.90;;;;;;5059664;28;20075;-72
2023/10/11 09:34:32;;;;;;;19.83;7.38;;;17.70;99.90;;;;;;5018795;28;20049;-73
2023/10/11 09:37:02;;;;;;;19.95;7.25;;;17.70;99.90;;;;;;5056201;28;20647;-75
2023/10/11 09:39:29;;;;;;;25.80;8.07;;;17.70;99.90;;;;;;5007192;28;20055;-72
2023/10/11 09:42:02;;;;;;;21.70;8.13;;;17.70;99.90;;;;;;5057452;28;20127;-74
2023/10/11 09:44:37;;;;;;;25.65;8.50;;;17.70;99.90;;;;;;4998037;28;20068;-73
2023/10/11 09:47:16;;;;;;;19.35;7.65;;;17.70;99.90;;;;;;5041086;28;20051;-73
2023/10/11 09:49:43;;;;;;;21.88;8.45;;;17.80;99.90;;;;;;4994665;28;20049;-73
2023/10/11 09:52:10;;;;;;;19.27;6.53;;;17.90;99.90;;;;;;5057519;28;20064;-73
2023/10/11 09:54:40;;;;;;;19.00;6.65;;;17.90;99.90;;;;;;4992736;28;169687;-73
2023/10/11 09:57:33;;;;;;;19.42;6.70;;;18.00;99.90;;;;;;5058593;28;20053;-72
2023/10/11 10:00:46;;;;;;;22.00;6.55;;;18.10;99.90;;;;;;5007072;28;20477;-73
2023/10/11 10:03:15;;;;;;;17.23;6.65;;;18.20;99.90;;;;;;5000820;28;21105;-71
2023/10/11 10:06:07;;;;;;;19.60;7.25;;;18.30;99.90;;;;;;5026273;28;20060;-70
2023/10/11 10:08:33;;;;;;;21.67;7.03;;;18.30;99.90;;;;;;4976277;28;161479;-72
2023/10/11 10:11:02;;;;;;;21.50;6.75;;;18.30;99.90;;;;;;5031575;28;20056;-73
2023/10/11 10:13:30;;;;;;;20.00;6.68;;;18.30;99.90;;;;;;4996958;28;169088;-73
2023/10/11 10:15:57;;;;;;;18.95;6.70;;;18.40;99.90;;;;;;5019850;28;20753;-73
2023/10/11 10:18:24;;;;;;;21.55;6.93;;;18.30;99.90;;;;;;4964403;28;20042;-66
2023/10/11 10:21:04;;;;;;;15.90;5.57;;;18.40;99.90;;;;;;5029713;28;20049;-71
2023/10/11 10:23:38;;;;;;;14.98;5.50;;;18.40;99.90;;;;;;4987501;28;20053;-72
2023/10/11 10:26:07;;;;;;;17.55;6.00;;;18.40;99.90;;;;;;5004998;28;20060;-72
2023/10/11 10:28:34;;;;;;;17.58;5.88;;;18.40;99.90;;;;;;4985466;28;20503;-73
2023/10/11 10:31:12;;;;;;;15.85;5.38;;;18.50;99.90;;;;;;5025435;28;20052;-73
2023/10/11 10:33:39;;;;;;;18.67;5.70;;;18.50;99.90;;;;;;4966483;28;20041;-72
2023/10/11 10:36:17;;;;;;;21.27;5.63;;;18.40;99.90;;;;;;5015027;28;20053;-71
2023/10/11 10:42:03;;;;;;;17.40;5.53;;;18.10;99.90;;;;;;5034753;28;20059;-71
2023/10/11 10:44:31;;;;;;;19.23;5.68;;;18.20;99.90;;;;;;5007128;28;20065;-72
2023/10/11 10:46:59;;;;;;;13.80;5.38;;;18.30;99.90;;;;;;5050090;28;20087;-70
2023/10/11 10:49:42;;;;;;;12.90;5.40;;;18.60;99.90;;;;;;5005821;28;20068;-71
2023/10/11 10:52:25;;;;;;;11.85;4.53;;;19.00;99.90;;;;;;5057636;28;20483;-72
2023/10/11 10:55:01;;;;;;;13.70;4.80;;;19.20;99.90;;;;;;4985905;28;138330;-68
2023/10/11 10:57:31;;;;;;;13.98;5.05;;;19.20;99.90;;;;;;5057705;28;20053;-71
2023/10/11 11:00:21;;;;;;;16.08;5.30;;;19.80;99.90;;;;;;5013562;28;60932;-71
2023/10/11 11:02:47;;;;;;;14.38;4.97;;;19.60;99.90;;;;;;5037194;28;20060;-70
2023/10/11 11:05:14;;;;;;;14.27;5.22;;;19.50;99.90;;;;;;5008336;28;20061;-70
2023/10/11 11:07:41;;;;;;;14.80;4.78;;;19.40;99.90;;;;;;5057875;28;20060;-72
2023/10/11 11:10:15;;;;;;;14.52;5.07;;;19.30;99.90;;;;;;5018596;28;20057;-70
2023/10/11 11:12:41;;;;;;;15.02;4.38;;;19.50;99.90;;;;;;5044126;28;20060;-71
2023/10/11 11:15:09;;;;;;;17.20;4.78;;;19.70;99.90;;;;;;5005908;28;20056;-71
2023/10/11 11:17:46;;;;;;;16.30;4.40;;;20.40;99.90;;;;;;5059452;28;20052;-71
2023/10/11 11:20:32;;;;;;;10.73;3.60;;;20.70;99.90;;;;;;4984934;28;20045;-70
2023/10/11 11:22:59;;;;;;;13.45;4.25;;;20.60;99.90;;;;;;5020451;28;20060;-71
2023/10/11 11:28:05;;;;;;;12.00;4.05;;;20.40;99.90;;;;;;5022345;28;20075;-72
2023/10/11 11:30:36;;;;;;;12.13;3.33;;;20.20;99.90;;;;;;5053709;28;20060;-71
2023/10/11 11:33:13;;;;;;;12.70;3.83;;;20.20;99.90;;;;;;5004563;28;20049;-72
2023/10/11 11:35:44;;;;;;;10.90;3.65;;;19.80;99.90;;;;;;5060803;28;20136;-71
2023/10/11 11:38:20;;;;;;;14.43;3.70;;;19.50;99.90;;;;;;5017983;28;20065;-73
2023/10/11 11:41:03;;;;;;;11.55;3.53;;;19.50;99.90;;;;;;5062604;28;20123;-74
2023/10/11 11:43:33;;;;;;;11.63;3.55;;;19.40;99.90;;;;;;5021280;28;20432;-73
2023/10/11 11:46:03;;;;;;;13.13;4.25;;;19.50;99.90;;;;;;5058292;28;20064;-72
2023/10/11 11:48:40;;;;;;;14.23;3.60;;;19.60;99.90;;;;;;5022966;28;20042;-73
2023/10/11 11:51:13;;;;;;;13.35;4.03;;;19.60;99.90;;;;;;5053426;28;20721;-74
2023/10/11 11:53:44;;;;;;;12.73;4.22;;;19.70;99.90;;;;;;4997517;28;197581;-72
2023/10/11 11:56:11;;;;;;;12.93;4.20;;;19.80;99.90;;;;;;5052671;28;20075;-73
2023/10/11 11:58:45;;;;;;;15.18;3.97;;;19.80;99.90;;;;;;5011828;28;20053;-72
2023/10/11 12:01:19;;;;;;;12.38;3.92;;;19.80;99.90;;;;;;5060963;28;20048;-73
2023/10/11 12:03:53;;;;;;;14.32;4.03;;;19.80;99.90;;;;;;5005847;28;20041;-73
2023/10/11 12:06:23;;;;;;;12.40;3.58;;;20.10;99.90;;;;;;5047787;28;20057;-73
2023/10/11 12:08:59;;;;;;;11.60;3.58;;;20.10;99.90;;;;;;5014546;28;20049;-72
2023/10/11 12:11:30;;;;;;;11.90;3.53;;;20.60;99.90;;;;;;5055524;28;20056;-72
2023/10/11 12:14:03;;;;;;;11.43;2.67;;;21.00;99.90;;;;;;5020646;28;20060;-72
2023/10/11 12:16:30;;;;;;;10.40;2.97;;;21.80;99.90;;;;;;5057025;28;20549;-72
2023/10/11 12:18:59;;;;;;;13.25;3.08;;;21.70;99.90;;;;;;5004591;28;20060;-73
2023/10/11 12:21:26;;;;;;;12.40;3.60;;;21.60;99.90;;;;;;5048793;28;20265;-74
2023/10/11 12:23:52;;;;;;;11.82;3.30;;;22.20;99.90;;;;;;5012022;28;45057;-74
2023/10/11 12:26:18;;;;;;;12.00;3.45;;;22.00;99.90;;;;;;5057120;28;20399;-74
2023/10/11 12:28:45;;;;;;;12.43;2.92;;;22.20;99.90;;;;;;5019092;28;20056;-73
2023/10/11 12:31:12;;;;;;;12.38;3.08;;;22.00;99.90;;;;;;5054390;28;20048;-73
2023/10/11 12:33:39;;;;;;;13.57;3.53;;;21.60;99.90;;;;;;5009478;28;20044;-75
2023/10/11 12:36:06;;;;;;;15.93;3.50;;;21.30;99.90;;;;;;5026561;28;20048;-74
2023/10/11 12:38:36;;;;;;;16.92;3.60;;;21.10;99.90;;;;;;5023599;28;20045;-75
2023/10/11 12:41:05;;;;;;;14.52;3.67;;;20.80;99.90;;;;;;5060694;28;20049;-76
2023/10/11 12:43:32;;;;;;;9.60;2.90;;;21.50;99.90;;;;;;5017577;28;20052;-75
2023/10/11 12:46:00;;;;;;;12.77;3.33;;;21.70;99.90;;;;;;5040206;28;20044;-73
2023/10/11 12:48:26;;;;;;;13.18;3.10;;;21.50;99.90;;;;;;5023005;28;20040;-74
2023/10/11 12:50:53;;;;;;;15.20;3.55;;;21.20;99.90;;;;;;5047614;28;20053;-73
2023/10/11 12:53:19;;;;;;;13.07;3.70;;;20.90;99.90;;;;;;4987910;28;248356;-73
2023/10/11 12:55:49;;;;;;;14.75;3.50;;;20.70;99.90;;;;;;5037072;28;20045;-74
2023/10/11 12:58:16;;;;;;;11.20;3.30;;;20.60;99.90;;;;;;5020979;28;20420;-72
2023/10/11 13:00:59;;;;;;;13.18;3.35;;;20.70;99.90;;;;;;5037694;28;20060;-73
2023/10/11 13:03:26;;;;;;;10.85;2.90;;;21.80;99.90;;;;;;5023564;28;20064;-72
2023/10/11 13:05:56;;;;;;;12.50;3.03;;;22.10;99.90;;;;;;5035233;28;20048;-74
2023/10/11 13:08:28;;;;;;;11.43;3.07;;;22.70;99.90;;;;;;5014667;28;20902;-73
2023/10/11 13:10:54;;;;;;;11.93;3.15;;;23.50;99.90;;;;;;5048346;28;20056;-74
2023/10/11 13:13:21;;;;;;;13.05;3.15;;;23.50;99.90;;;;;;4997152;28;20543;-73
2023/10/11 13:16:00;;;;;;;10.77;3.20;;;23.40;99.90;;;;;;5048650;28;20491;-73
2023/10/11 13:18:28;;;;;;;11.63;3.03;;;23.10;99.90;;;;;;5001466;28;20040;-72
2023/10/11 13:20:55;;;;;;;13.15;3.50;;;22.40;99.90;;;;;;5051230;28;20053;-73
2023/10/11 13:23:31;;;;;;;11.38;3.20;;;21.90;99.90;;;;;;4997887;28;20508;-74
2023/10/11 13:26:07;;;;;;;12.07;3.30;;;21.50;99.90;;;;;;5050399;28;20044;-75
2023/10/11 13:28:34;;;;;;;13.45;3.25;;;21.20;99.90;;;;;;5010761;28;20045;-74
2023/10/11 13:31:02;;;;;;;12.25;3.47;;;20.90;99.90;;;;;;5017809;28;20512;-73
2023/10/11 13:33:32;;;;;;;12.38;3.22;;;20.80;99.90;;;;;;5017823;28;20404;-73
2023/10/11 13:35:59;;;;;;;11.75;3.22;;;20.70;99.90;;;;;;5048049;28;20435;-73
2023/10/11 13:38:30;;;;;;;11.77;3.15;;;20.50;99.90;;;;;;5017073;28;20049;-73
2023/10/11 13:40:58;;;;;;;13.65;3.33;;;20.50;99.90;;;;;;5042014;28;20056;-74
2023/10/11 13:43:25;;;;;;;14.30;3.38;;;20.70;99.90;;;;;;5012037;28;68173;-73
2023/10/11 13:45:56;;;;;;;10.65;3.22;;;20.70;99.90;;;;;;5047883;28;20051;-74
2023/10/11 13:48:26;;;;;;;;;;;20.70;99.90;;;;;;5021984;28;46722;-73
2023/10/11 13:50:53;;;;;;;12.30;3.07;;;20.60;99.90;;;;;;5040615;28;20298;-74
2023/10/11 13:53:20;;;;;;;13.07;3.10;;;20.50;99.90;;;;;;4993994;28;200608;-74